Time;durP1;ratioP1;P1;durP2;ratioP2;P2;SDS_P1;SDS_P2;PMS_P1;PMS_P2;Temp;Humidity;BMP_temperature;BMP_pressure;BME280_temperature;BME280_humidity;BME280_pressure;Samples;Min_cycle;Max_cycle;Signal;HPM_P1;HPM_P2
2021/07/04 00:00:52;;;;;;;14.25;9.38;;;26.70;75.70;;;;;;1924746;74;21077;-51
2021/07/04 00:03:21;;;;;;;11.83;9.80;;;26.80;75.30;;;;;;1924767;74;21100;-51
2021/07/04 00:05:51;;;;;;;12.78;8.95;;;26.80;75.20;;;;;;1924710;74;21074;-51
2021/07/04 00:08:23;;;;;;;19.17;9.80;;;26.90;75.20;;;;;;1924779;74;20998;-50
2021/07/04 00:10:55;;;;;;;26.87;9.23;;;26.90;75.10;;;;;;1924701;74;21530;-50
2021/07/04 00:13:25;;;;;;;14.87;9.58;;;26.90;75.00;;;;;;1916762;74;21629;-50
2021/07/04 00:15:54;;;;;;;13.58;8.80;;;26.90;75.00;;;;;;1905432;75;21026;-51
2021/07/04 00:18:26;;;;;;;11.78;9.00;;;27.00;74.70;;;;;;1905460;75;21113;-50
2021/07/04 00:20:57;;;;;;;13.30;8.88;;;26.90;74.60;;;;;;1905360;75;21105;-51
2021/07/04 00:23:28;;;;;;;14.93;10.75;;;26.90;74.70;;;;;;1905382;74;21089;-51
2021/07/04 00:25:57;;;;;;;15.08;10.25;;;26.90;74.50;;;;;;1905425;75;20999;-50
2021/07/04 00:28:27;;;;;;;16.52;9.88;;;26.80;74.50;;;;;;1905404;75;21097;-48
2021/07/04 00:30:56;;;;;;;15.03;10.40;;;26.70;74.80;;;;;;1905330;75;21023;-49
2021/07/04 00:33:25;;;;;;;14.13;9.53;;;26.70;75.10;;;;;;1905345;75;21536;-47
2021/07/04 00:35:54;;;;;;;14.18;10.23;;;26.60;75.20;;;;;;1905326;75;21501;-51
2021/07/04 00:38:24;;;;;;;12.28;9.35;;;26.60;75.30;;;;;;1905289;75;21023;-51
2021/07/04 00:40:53;;;;;;;13.62;9.03;;;26.60;75.40;;;;;;1905456;74;20992;-51
2021/07/04 00:43:23;;;;;;;14.60;9.70;;;26.60;75.50;;;;;;1905324;75;21031;-50
2021/07/04 00:45:52;;;;;;;15.08;9.48;;;26.60;75.30;;;;;;1905332;75;21023;-50
2021/07/04 00:48:22;;;;;;;15.35;9.58;;;26.60;75.90;;;;;;1905384;74;20995;-51
2021/07/04 00:50:51;;;;;;;11.63;10.10;;;26.60;74.90;;;;;;1905452;75;21497;-48
2021/07/04 00:53:23;;;;;;;10.68;9.38;;;26.60;74.80;;;;;;1905448;75;21008;-49
2021/07/04 00:55:53;;;;;;;13.13;8.93;;;26.60;75.00;;;;;;1905351;75;21023;-48
2021/07/04 00:58:22;;;;;;;13.48;9.63;;;26.60;75.20;;;;;;1905285;75;21022;-51
2021/07/04 01:00:53;;;;;;;14.68;8.93;;;26.60;75.10;;;;;;1905336;74;21105;-49
2021/07/04 01:03:22;;;;;;;12.82;9.38;;;26.60;75.00;;;;;;1905423;74;21007;-51
2021/07/04 01:05:53;;;;;;;13.00;9.30;;;26.60;74.80;;;;;;1905334;74;21140;-48
2021/07/04 01:08:22;;;;;;;14.95;10.30;;;26.50;74.60;;;;;;1905419;75;21085;-50
2021/07/04 01:10:52;;;;;;;12.88;8.93;;;26.50;74.60;;;;;;1905260;74;21019;-51
2021/07/04 01:13:23;;;;;;;17.20;10.18;;;26.40;74.60;;;;;;1905018;74;21022;-50
2021/07/04 01:15:54;;;;;;;13.98;10.05;;;26.40;74.80;;;;;;1903001;74;21060;-49
2021/07/04 01:18:24;;;;;;;17.35;10.08;;;26.30;74.90;;;;;;1905429;74;20999;-50
2021/07/04 01:20:58;;;;;;;15.00;9.98;;;26.30;75.20;;;;;;1903203;74;21066;-49
2021/07/04 01:23:28;;;;;;;16.60;10.15;;;26.30;75.50;;;;;;1905422;75;21127;-51
2021/07/04 01:25:57;;;;;;;20.32;11.95;;;26.20;75.50;;;;;;1905431;75;21183;-50
2021/07/04 01:28:28;;;;;;;18.57;11.85;;;26.20;75.50;;;;;;1904996;74;21104;-48
2021/07/04 01:31:00;;;;;;;17.40;10.30;;;26.10;75.60;;;;;;1905182;74;21024;-50
2021/07/04 01:33:31;;;;;;;15.18;9.90;;;26.10;75.90;;;;;;1904969;74;21004;-49
2021/07/04 01:36:00;;;;;;;17.70;10.03;;;26.00;75.90;;;;;;1905358;74;21093;-49
2021/07/04 01:38:31;;;;;;;14.87;10.53;;;26.00;76.10;;;;;;1903403;74;21035;-50
2021/07/04 01:41:02;;;;;;;14.75;9.88;;;26.10;76.00;;;;;;1905298;74;21097;-48
2021/07/04 01:43:32;;;;;;;16.05;10.48;;;26.00;76.00;;;;;;1905334;75;21028;-50
2021/07/04 01:46:02;;;;;;;18.15;10.25;;;26.00;75.80;;;;;;1905326;74;21015;-51
2021/07/04 01:48:32;;;;;;;22.67;11.57;;;26.00;76.00;;;;;;1905355;75;21043;-49
2021/07/04 01:51:03;;;;;;;14.65;10.50;;;26.00;76.60;;;;;;1905179;74;21092;-50
2021/07/04 01:53:35;;;;;;;12.37;9.63;;;26.00;76.00;;;;;;1905309;75;21097;-49
2021/07/04 01:56:07;;;;;;;17.80;10.45;;;26.00;76.00;;;;;;1904824;74;21591;-50
2021/07/04 01:58:40;;;;;;;19.92;9.80;;;26.00;76.10;;;;;;1904989;74;21091;-50
2021/07/04 02:01:11;;;;;;;15.15;10.58;;;26.00;76.10;;;;;;1905343;75;21023;-48
2021/07/04 02:03:41;;;;;;;14.70;10.35;;;25.90;75.90;;;;;;1905304;75;21109;-49
2021/07/04 02:06:12;;;;;;;14.53;10.35;;;25.80;75.90;;;;;;1904930;74;21075;-50
2021/07/04 02:08:43;;;;;;;12.85;9.93;;;25.70;76.10;;;;;;1905269;74;21072;-49
2021/07/04 02:11:12;;;;;;;16.17;9.88;;;25.60;76.50;;;;;;1905284;74;21020;-48
2021/07/04 02:13:43;;;;;;;19.52;11.45;;;25.50;76.80;;;;;;1904981;74;21031;-49
2021/07/04 02:16:14;;;;;;;12.78;10.98;;;25.60;77.20;;;;;;1873971;76;21008;-51
2021/07/04 02:18:45;;;;;;;12.55;9.70;;;25.50;77.00;;;;;;1869098;76;21054;-47
2021/07/04 02:21:20;;;;;;;10.72;9.63;;;25.50;77.00;;;;;;1872703;76;21070;-49
2021/07/04 02:24:06;;;;;;;14.18;10.18;;;25.50;77.20;;;;;;1875478;76;21098;-51
2021/07/04 02:26:41;;;;;;;12.13;10.08;;;25.50;77.20;;;;;;1821426;76;21136;-48
2021/07/04 02:29:14;;;;;;;13.90;9.93;;;25.50;76.90;;;;;;1872943;76;21077;-49
2021/07/04 02:31:45;;;;;;;14.10;9.95;;;25.60;76.80;;;;;;1874594;76;21164;-49
2021/07/04 02:34:16;;;;;;;14.05;9.75;;;25.50;76.90;;;;;;1875499;76;21642;-50
2021/07/04 02:36:47;;;;;;;11.38;10.25;;;25.60;77.10;;;;;;1874119;76;21100;-50
2021/07/04 02:39:18;;;;;;;12.37;9.13;;;25.60;77.10;;;;;;1875180;75;21045;-51
2021/07/04 02:41:48;;;;;;;17.60;9.98;;;25.60;77.10;;;;;;1875614;76;21163;-48
2021/07/04 02:44:19;;;;;;;13.43;10.48;;;25.60;77.00;;;;;;1875536;76;21091;-49
2021/07/04 02:46:49;;;;;;;15.65;11.12;;;25.60;76.80;;;;;;1875482;75;21031;-51
2021/07/04 02:49:19;;;;;;;13.13;10.58;;;25.60;76.90;;;;;;1875683;76;21026;-50
2021/07/04 02:51:50;;;;;;;18.55;10.35;;;25.50;76.80;;;;;;1875070;75;21074;-49
2021/07/04 02:54:20;;;;;;;13.35;10.58;;;25.50;76.90;;;;;;1875485;76;21047;-50
2021/07/04 02:56:49;;;;;;;15.85;9.83;;;25.50;76.80;;;;;;1875551;76;21030;-50
2021/07/04 02:59:19;;;;;;;14.23;9.75;;;25.50;77.10;;;;;;1875460;76;21058;-51
2021/07/04 03:01:48;;;;;;;11.57;8.93;;;25.50;77.20;;;;;;1875592;76;21035;-49
2021/07/04 03:04:17;;;;;;;15.48;9.03;;;25.60;76.90;;;;;;1875655;76;21117;-51
2021/07/04 03:06:47;;;;;;;15.85;9.80;;;25.70;76.60;;;;;;1875484;76;21152;-51
2021/07/04 03:09:16;;;;;;;12.70;9.70;;;25.70;76.20;;;;;;1875461;76;21089;-48
2021/07/04 03:11:46;;;;;;;18.45;10.40;;;25.80;76.10;;;;;;1840116;76;21082;-50
2021/07/04 03:14:15;;;;;;;13.70;10.58;;;25.80;75.70;;;;;;1875991;73;21018;-51
2021/07/04 03:16:45;;;;;;;16.02;10.70;;;25.80;75.80;;;;;;1905322;75;21012;-49
2021/07/04 03:19:15;;;;;;;19.92;10.28;;;25.70;75.70;;;;;;1905189;75;20999;-51
2021/07/04 03:21:44;;;;;;;16.93;11.28;;;25.70;75.60;;;;;;1905275;75;21000;-51
2021/07/04 03:24:14;;;;;;;14.63;9.75;;;25.60;75.70;;;;;;1905333;75;21019;-51
2021/07/04 03:26:44;;;;;;;27.62;11.60;;;25.60;76.00;;;;;;1905495;75;21022;-49
2021/07/04 03:29:14;;;;;;;27.73;14.55;;;25.60;76.10;;;;;;1905293;75;21020;-50
2021/07/04 03:31:45;;;;;;;20.48;11.90;;;25.70;76.20;;;;;;1905384;75;21047;-50
2021/07/04 03:34:15;;;;;;;14.13;11.53;;;25.80;76.00;;;;;;1905488;75;21024;-50
2021/07/04 03:36:45;;;;;;;19.02;10.10;;;25.90;75.60;;;;;;1905381;74;21085;-51
2021/07/04 03:39:15;;;;;;;16.57;10.10;;;26.00;75.90;;;;;;1905398;75;21089;-50
2021/07/04 03:41:45;;;;;;;13.25;9.63;;;26.10;75.80;;;;;;1905581;75;21160;-49
2021/07/04 03:44:15;;;;;;;13.40;8.75;;;26.20;75.70;;;;;;1905389;75;21020;-51
2021/07/04 03:46:45;;;;;;;12.53;9.83;;;26.30;75.50;;;;;;1905368;75;20996;-51
2021/07/04 03:49:15;;;;;;;16.62;10.40;;;26.30;75.40;;;;;;1905421;74;21019;-48
2021/07/04 03:51:49;;;;;;;14.30;9.98;;;26.40;75.00;;;;;;1904644;74;21063;-48
2021/07/04 03:54:18;;;;;;;37.78;11.00;;;26.40;74.60;;;;;;1905328;74;21109;-50
2021/07/04 03:56:49;;;;;;;15.50;9.23;;;26.40;74.80;;;;;;1905523;75;21011;-48
2021/07/04 03:59:18;;;;;;;12.00;9.65;;;26.40;74.90;;;;;;1905356;74;21089;-51
2021/07/04 04:01:48;;;;;;;15.20;9.88;;;26.50;75.00;;;;;;1905302;74;21019;-50
2021/07/04 04:04:18;;;;;;;20.40;10.65;;;26.60;74.70;;;;;;1905424;74;21047;-51
2021/07/04 04:06:48;;;;;;;13.65;10.20;;;26.60;74.40;;;;;;1892413;75;21019;-50
2021/07/04 04:09:19;;;;;;;14.93;10.20;;;26.60;74.10;;;;;;1905304;75;20996;-51
2021/07/04 04:11:50;;;;;;;14.33;10.18;;;26.60;73.90;;;;;;1903513;74;21083;-52
2021/07/04 04:14:21;;;;;;;12.58;9.90;;;26.70;73.90;;;;;;1904793;74;21035;-48
2021/07/04 04:16:50;;;;;;;15.15;9.25;;;26.80;73.50;;;;;;1921903;74;21141;-51
2021/07/04 04:19:21;;;;;;;18.60;9.95;;;26.90;73.00;;;;;;1904009;74;20990;-51
2021/07/04 04:21:51;;;;;;;34.45;11.45;;;26.90;72.70;;;;;;1924769;74;20999;-51
2021/07/04 04:24:20;;;;;;;18.65;10.93;;;26.90;72.20;;;;;;1924704;74;21019;-50
2021/07/04 04:26:50;;;;;;;16.07;10.10;;;26.80;72.30;;;;;;1924704;74;21018;-49
2021/07/04 04:29:19;;;;;;;18.45;10.80;;;26.60;72.60;;;;;;1924659;74;21058;-49
2021/07/04 04:31:49;;;;;;;17.15;10.58;;;26.60;73.10;;;;;;1924765;74;21024;-51
2021/07/04 04:34:19;;;;;;;17.27;10.95;;;26.60;73.50;;;;;;1924770;74;20991;-51
2021/07/04 04:36:48;;;;;;;15.30;10.65;;;26.70;73.60;;;;;;1924834;74;21542;-50
2021/07/04 04:39:20;;;;;;;15.53;10.95;;;26.70;73.50;;;;;;1924622;74;21023;-49
2021/07/04 04:41:52;;;;;;;19.82;11.35;;;26.80;73.40;;;;;;1924720;74;21570;-48
2021/07/04 04:44:21;;;;;;;17.67;11.68;;;26.90;73.20;;;;;;1924687;74;21096;-48
2021/07/04 04:46:50;;;;;;;14.43;10.15;;;27.00;72.90;;;;;;1924851;74;21006;-51
2021/07/04 04:49:20;;;;;;;16.67;10.80;;;27.00;72.90;;;;;;1924657;74;21026;-49
2021/07/04 04:51:49;;;;;;;12.50;9.90;;;27.00;72.70;;;;;;1924772;74;20998;-52
2021/07/04 04:54:19;;;;;;;15.72;12.23;;;27.00;72.50;;;;;;1924702;74;21035;-52
2021/07/04 04:56:48;;;;;;;18.15;12.70;;;27.00;72.60;;;;;;1924839;74;21027;-49
2021/07/04 04:59:17;;;;;;;17.65;12.98;;;26.90;72.80;;;;;;1924777;74;21108;-51
2021/07/04 05:01:47;;;;;;;20.05;14.80;;;26.80;73.10;;;;;;1924634;74;21128;-50
2021/07/04 05:04:16;;;;;;;29.90;13.98;;;26.80;73.30;;;;;;1924685;74;21023;-52
2021/07/04 05:06:46;;;;;;;24.10;13.38;;;26.80;73.00;;;;;;1924718;74;21092;-51
2021/07/04 05:09:15;;;;;;;25.68;14.68;;;26.80;72.80;;;;;;1924701;74;21050;-52
2021/07/04 05:11:45;;;;;;;25.17;14.73;;;26.90;73.10;;;;;;1924765;74;21096;-51
2021/07/04 05:14:14;;;;;;;31.87;15.30;;;27.00;72.70;;;;;;1924775;74;21018;-51
2021/07/04 05:16:44;;;;;;;25.00;15.38;;;27.10;72.40;;;;;;1924672;74;21128;-50
2021/07/04 05:19:13;;;;;;;43.33;17.20;;;27.10;72.20;;;;;;1924772;74;21485;-51
2021/07/04 05:21:43;;;;;;;35.60;18.60;;;27.20;72.00;;;;;;1924698;74;21019;-51
2021/07/04 05:24:13;;;;;;;34.83;17.15;;;27.30;71.60;;;;;;1924768;74;21458;-52
2021/07/04 05:26:42;;;;;;;25.08;14.83;;;27.50;71.40;;;;;;1924818;74;21027;-49
2021/07/04 05:29:12;;;;;;;22.80;13.13;;;27.60;70.50;;;;;;1924561;74;21014;-52
2021/07/04 05:31:41;;;;;;;21.25;11.70;;;27.60;69.90;;;;;;1924655;74;20999;-51
2021/07/04 05:34:11;;;;;;;17.00;9.85;;;27.60;69.80;;;;;;1924654;74;20999;-50
2021/07/04 05:36:40;;;;;;;16.85;10.60;;;27.60;70.00;;;;;;1924783;74;21002;-51
2021/07/04 05:39:09;;;;;;;18.77;10.78;;;27.60;70.00;;;;;;1924640;74;21038;-51
2021/07/04 05:41:39;;;;;;;22.13;11.15;;;27.60;70.10;;;;;;1924710;74;21051;-52
2021/07/04 05:44:08;;;;;;;26.07;10.80;;;27.70;70.50;;;;;;1924648;74;21015;-51
2021/07/04 05:46:38;;;;;;;17.90;9.68;;;27.90;70.40;;;;;;1924715;74;21096;-52
2021/07/04 05:49:07;;;;;;;14.85;8.75;;;28.00;69.50;;;;;;1924853;74;21038;-50
2021/07/04 05:51:37;;;;;;;14.68;8.38;;;28.00;69.40;;;;;;1924768;74;21053;-52
2021/07/04 05:54:06;;;;;;;12.88;8.98;;;28.10;68.70;;;;;;1924654;74;21038;-51
2021/07/04 05:56:35;;;;;;;14.10;8.95;;;28.10;68.40;;;;;;1924666;74;21007;-49
2021/07/04 05:59:05;;;;;;;15.85;8.25;;;28.10;68.40;;;;;;1924730;74;21433;-51
2021/07/04 06:01:34;;;;;;;10.90;8.15;;;28.10;68.00;;;;;;1924721;74;21086;-51
2021/07/04 06:04:04;;;;;;;14.65;8.95;;;28.20;67.50;;;;;;1924810;74;21015;-52
2021/07/04 06:06:34;;;;;;;13.55;8.25;;;28.30;67.10;;;;;;1924688;74;21007;-50
2021/07/04 06:09:03;;;;;;;11.30;8.50;;;28.40;67.30;;;;;;1924539;74;21109;-52
2021/07/04 06:11:32;;;;;;;16.85;7.42;;;28.50;67.30;;;;;;1924678;74;21014;-52
2021/07/04 06:14:02;;;;;;;13.58;9.43;;;28.60;66.90;;;;;;1924701;74;21043;-52
2021/07/04 06:16:31;;;;;;;9.13;6.97;;;28.70;66.50;;;;;;1920593;74;21031;-52
2021/07/04 06:19:00;;;;;;;13.00;8.15;;;28.70;66.20;;;;;;1905215;75;21043;-50
2021/07/04 06:21:30;;;;;;;11.73;7.87;;;28.60;66.20;;;;;;1905226;74;21000;-52
2021/07/04 06:23:59;;;;;;;21.65;8.85;;;28.40;66.50;;;;;;1905268;75;21101;-51
2021/07/04 06:26:28;;;;;;;12.45;7.90;;;28.50;66.50;;;;;;1905263;75;21101;-51
2021/07/04 06:28:57;;;;;;;13.53;8.20;;;28.60;66.30;;;;;;1905236;75;21075;-51
2021/07/04 06:31:28;;;;;;;15.05;8.68;;;28.70;66.00;;;;;;1905234;75;21021;-52
2021/07/04 06:33:58;;;;;;;19.75;9.03;;;28.80;65.80;;;;;;1905222;75;21035;-51
2021/07/04 06:36:28;;;;;;;12.75;8.38;;;28.80;65.40;;;;;;1905355;75;21137;-51
2021/07/04 06:38:57;;;;;;;32.13;12.60;;;28.80;65.00;;;;;;1905335;74;21070;-50
2021/07/04 06:41:27;;;;;;;22.37;9.48;;;28.70;65.20;;;;;;1905366;75;21438;-51
2021/07/04 06:43:57;;;;;;;10.65;8.58;;;28.60;65.30;;;;;;1905521;75;21015;-49
2021/07/04 06:46:27;;;;;;;18.55;8.50;;;28.60;65.50;;;;;;1905207;75;21027;-51
2021/07/04 06:48:56;;;;;;;21.62;9.50;;;28.60;65.60;;;;;;1905348;75;21019;-51
2021/07/04 06:51:26;;;;;;;14.75;8.85;;;28.60;65.90;;;;;;1905196;74;21035;-51
2021/07/04 06:53:55;;;;;;;11.65;8.48;;;28.70;65.70;;;;;;1905264;75;21101;-50
2021/07/04 06:56:25;;;;;;;20.15;9.05;;;28.90;65.20;;;;;;1905212;74;21019;-52
2021/07/04 06:58:54;;;;;;;17.85;8.78;;;29.00;64.80;;;;;;1905176;75;21023;-51
2021/07/04 07:01:23;;;;;;;13.28;8.33;;;29.10;64.80;;;;;;1905216;74;21093;-50
2021/07/04 07:03:53;;;;;;;23.77;9.35;;;29.20;64.40;;;;;;1905172;75;21113;-51
2021/07/04 07:06:25;;;;;;;14.98;10.08;;;29.10;63.90;;;;;;1905299;75;21009;-51
2021/07/04 07:08:54;;;;;;;11.18;8.38;;;29.20;64.50;;;;;;1905198;75;21019;-52
2021/07/04 07:11:23;;;;;;;17.57;9.33;;;29.30;64.30;;;;;;1905166;75;21152;-52
2021/07/04 07:13:52;;;;;;;16.93;10.08;;;29.40;64.50;;;;;;1905278;75;21384;-51
2021/07/04 07:16:21;;;;;;;15.32;11.22;;;29.40;64.50;;;;;;1905228;75;21015;-52
2021/07/04 07:18:51;;;;;;;14.35;10.48;;;29.40;64.20;;;;;;1923483;74;21020;-50
2021/07/04 07:21:21;;;;;;;36.17;12.10;;;29.40;64.20;;;;;;1924604;74;21030;-52
2021/07/04 07:23:51;;;;;;;9.25;8.35;;;29.40;64.20;;;;;;1924615;74;21002;-51
2021/07/04 07:26:20;;;;;;;16.80;8.85;;;29.40;64.20;;;;;;1924554;74;21042;-52
2021/07/04 07:28:49;;;;;;;25.37;9.65;;;29.40;64.40;;;;;;1924487;74;21105;-50
2021/07/04 07:31:21;;;;;;;14.93;9.00;;;29.40;64.60;;;;;;1924476;74;21116;-52
2021/07/04 07:33:50;;;;;;;14.50;9.73;;;29.50;64.30;;;;;;1924551;74;21018;-51
2021/07/04 07:36:20;;;;;;;15.05;8.25;;;29.70;64.50;;;;;;1924622;74;21046;-50
2021/07/04 07:38:50;;;;;;;18.55;10.45;;;29.90;64.30;;;;;;1924679;74;21104;-52
2021/07/04 07:41:20;;;;;;;18.12;10.23;;;30.10;64.20;;;;;;1924584;74;21116;-51
2021/07/04 07:43:50;;;;;;;15.83;10.10;;;30.30;63.80;;;;;;1924761;74;21014;-52
2021/07/04 07:46:20;;;;;;;15.58;10.38;;;30.40;63.60;;;;;;1924533;74;21023;-52
2021/07/04 07:48:49;;;;;;;21.05;11.57;;;30.50;63.60;;;;;;1924591;74;21096;-52
2021/07/04 07:51:22;;;;;;;21.42;10.93;;;30.60;63.50;;;;;;1922801;74;21152;-50
2021/07/04 07:53:52;;;;;;;23.47;12.68;;;30.60;63.70;;;;;;1924652;74;21433;-52
2021/07/04 07:56:21;;;;;;;17.07;10.60;;;30.50;63.80;;;;;;1924546;74;21020;-51
2021/07/04 07:58:51;;;;;;;16.17;10.55;;;30.60;64.00;;;;;;1924534;74;21023;-51
2021/07/04 08:01:21;;;;;;;16.77;10.03;;;30.60;63.90;;;;;;1924533;74;20999;-52
2021/07/04 08:03:51;;;;;;;20.00;10.85;;;30.70;63.80;;;;;;1924618;74;21116;-52
2021/07/04 08:06:20;;;;;;;16.48;10.80;;;30.80;63.70;;;;;;1924619;74;21018;-51
2021/07/04 08:08:50;;;;;;;17.82;10.38;;;30.80;63.70;;;;;;1924502;74;21038;-51
2021/07/04 08:11:21;;;;;;;21.02;11.80;;;31.00;63.90;;;;;;1924134;74;21079;-51
2021/07/04 08:13:50;;;;;;;20.85;12.35;;;31.10;63.90;;;;;;1924754;74;21014;-50
2021/07/04 08:16:20;;;;;;;17.02;12.05;;;31.10;64.10;;;;;;1924622;74;21104;-51
2021/07/04 08:18:49;;;;;;;19.60;11.18;;;31.10;63.90;;;;;;1911405;74;21043;-51
2021/07/04 08:21:19;;;;;;;22.00;11.73;;;31.00;63.90;;;;;;1905291;75;21059;-48
2021/07/04 08:23:48;;;;;;;21.57;12.35;;;31.00;64.00;;;;;;1905395;75;21529;-50
2021/07/04 08:26:18;;;;;;;26.17;12.90;;;31.00;64.00;;;;;;1905304;74;21136;-51
2021/07/04 08:28:47;;;;;;;22.67;13.20;;;31.00;64.10;;;;;;1905171;74;21082;-50
2021/07/04 08:31:16;;;;;;;24.27;13.72;;;31.00;64.40;;;;;;1905293;75;21101;-51
2021/07/04 08:33:46;;;;;;;21.23;13.05;;;31.00;64.50;;;;;;1905318;75;21524;-51
2021/07/04 08:36:15;;;;;;;22.32;13.28;;;31.00;64.70;;;;;;1905254;75;21104;-51
2021/07/04 08:38:45;;;;;;;29.05;12.82;;;31.00;64.70;;;;;;1905303;75;21012;-50
2021/07/04 08:41:15;;;;;;;19.90;15.75;;;31.10;64.60;;;;;;1905225;75;21288;-50
2021/07/04 08:43:45;;;;;;;19.00;13.15;;;31.30;64.70;;;;;;1905351;75;21015;-50
2021/07/04 08:46:14;;;;;;;19.15;12.30;;;31.40;64.70;;;;;;1905283;75;21019;-49
2021/07/04 08:48:43;;;;;;;19.73;12.37;;;31.50;64.60;;;;;;1905203;75;21019;-47
2021/07/04 08:51:13;;;;;;;13.20;11.50;;;31.60;64.40;;;;;;1905303;75;21105;-51
2021/07/04 08:53:43;;;;;;;16.50;12.00;;;31.60;64.20;;;;;;1905275;74;21101;-49
2021/07/04 08:56:12;;;;;;;19.48;12.35;;;31.60;64.20;;;;;;1905547;75;21117;-50
2021/07/04 08:58:41;;;;;;;13.13;11.15;;;31.60;64.00;;;;;;1905304;75;21023;-50
2021/07/04 09:01:16;;;;;;;20.77;12.25;;;31.60;63.40;;;;;;1905205;74;21027;-50
2021/07/04 09:03:50;;;;;;;17.85;12.20;;;31.40;63.80;;;;;;1905241;75;21079;-50
2021/07/04 09:06:38;;;;;;;21.42;12.70;;;31.30;64.00;;;;;;1905761;75;21035;-50
2021/07/04 09:09:16;;;;;;;19.27;13.13;;;31.20;64.60;;;;;;1905276;74;21070;-49
2021/07/04 09:11:54;;;;;;;15.10;11.55;;;31.10;64.70;;;;;;1905166;74;21032;-50
2021/07/04 09:14:45;;;;;;;19.60;12.50;;;31.00;65.20;;;;;;1902871;74;21097;-50
2021/07/04 09:17:16;;;;;;;17.77;12.20;;;30.90;65.20;;;;;;1904879;74;21474;-49
2021/07/04 09:19:57;;;;;;;18.80;11.83;;;30.90;65.10;;;;;;1905099;74;21023;-46
2021/07/04 09:22:31;;;;;;;20.40;12.58;;;30.80;65.20;;;;;;1905341;75;21548;-49
2021/07/04 09:25:09;;;;;;;30.97;13.88;;;30.80;65.40;;;;;;1905334;75;21098;-48
2021/07/04 09:27:40;;;;;;;22.42;13.85;;;30.70;65.60;;;;;;1905453;75;21055;-50
2021/07/04 09:30:16;;;;;;;22.13;12.78;;;30.70;65.60;;;;;;1905131;75;21143;-48
2021/07/04 09:32:48;;;;;;;22.32;12.78;;;30.60;65.50;;;;;;1905360;75;21443;-47
2021/07/04 09:35:19;;;;;;;22.62;13.55;;;30.50;65.70;;;;;;1905219;75;21098;-50
2021/07/04 09:37:53;;;;;;;24.67;12.95;;;30.50;65.90;;;;;;1905206;74;21054;-49
2021/07/04 09:40:27;;;;;;;17.42;12.55;;;30.40;66.40;;;;;;1905435;75;21161;-47
2021/07/04 09:43:06;;;;;;;25.40;12.35;;;30.30;66.70;;;;;;1905348;75;21019;-50
2021/07/04 09:45:55;;;;;;;28.92;13.30;;;30.30;67.10;;;;;;1905109;75;21079;-48
2021/07/04 09:48:32;;;;;;;17.17;12.63;;;30.20;67.40;;;;;;1903935;75;21073;-50
2021/07/04 09:51:03;;;;;;;15.63;11.85;;;30.20;68.20;;;;;;1904965;75;21081;-50
2021/07/04 09:53:37;;;;;;;18.87;11.45;;;30.10;69.00;;;;;;1905228;75;21015;-47
2021/07/04 09:56:15;;;;;;;16.85;10.35;;;30.00;69.20;;;;;;1905397;74;21027;-47
2021/07/04 09:58:47;;;;;;;16.40;8.90;;;29.80;69.20;;;;;;1905221;75;21113;-48
2021/07/04 10:01:39;;;;;;;17.60;7.75;;;29.60;69.60;;;;;;1905194;75;21020;-48
2021/07/04 10:04:32;;;;;;;13.65;6.45;;;29.30;68.40;;;;;;1905157;75;21062;-47
2021/07/04 10:07:02;;;;;;;11.75;6.78;;;28.90;67.20;;;;;;1905025;75;21043;-50
2021/07/04 10:09:32;;;;;;;6.72;5.83;;;28.60;67.00;;;;;;1905092;75;20991;-49
2021/07/04 10:12:01;;;;;;;8.50;5.83;;;28.40;66.80;;;;;;1905260;75;21095;-49
2021/07/04 10:14:31;;;;;;;11.08;7.08;;;28.10;66.70;;;;;;1905091;74;21088;-50
2021/07/04 10:17:02;;;;;;;7.25;5.70;;;27.90;67.30;;;;;;1905168;75;21020;-49
2021/07/04 10:19:33;;;;;;;8.23;5.90;;;27.70;67.00;;;;;;1904854;75;21213;-49
2021/07/04 10:22:04;;;;;;;9.43;6.12;;;27.40;67.70;;;;;;1904969;75;21048;-49
2021/07/04 10:24:33;;;;;;;8.48;5.60;;;27.20;67.40;;;;;;1905148;75;21024;-49
2021/07/04 10:27:04;;;;;;;7.87;5.37;;;27.10;67.20;;;;;;1905236;75;21024;-49
2021/07/04 10:29:34;;;;;;;10.15;6.55;;;26.90;66.80;;;;;;1905200;75;21486;-48
2021/07/04 10:32:11;;;;;;;11.63;6.40;;;26.70;67.70;;;;;;1905188;75;21019;-48
2021/07/04 10:34:49;;;;;;;11.57;6.12;;;26.60;68.40;;;;;;1905324;75;21470;-50
2021/07/04 10:37:23;;;;;;;9.63;7.42;;;26.40;69.80;;;;;;1905301;75;21090;-50
2021/07/04 10:40:11;;;;;;;9.28;5.45;;;26.30;70.10;;;;;;1903825;74;21035;-49
2021/07/04 10:42:40;;;;;;;8.23;6.90;;;26.30;70.20;;;;;;1905193;75;21036;-50
2021/07/04 10:45:27;;;;;;;12.10;6.40;;;26.30;70.70;;;;;;1905217;74;21043;-47
2021/07/04 10:48:18;;;;;;;10.45;6.15;;;26.20;71.30;;;;;;1902394;74;21093;-49
2021/07/04 10:51:06;;;;;;;10.68;6.53;;;26.20;71.70;;;;;;1905284;75;21053;-48
2021/07/04 10:53:47;;;;;;;10.63;6.67;;;26.10;71.90;;;;;;1905184;75;21020;-48
2021/07/04 10:56:35;;;;;;;8.05;5.95;;;26.00;72.20;;;;;;1904476;74;21019;-48
2021/07/04 10:59:21;;;;;;;9.80;6.25;;;25.90;72.40;;;;;;1905214;75;21015;-50
2021/07/04 11:01:58;;;;;;;9.38;6.42;;;25.80;72.70;;;;;;1904087;74;21055;-50
2021/07/04 11:04:38;;;;;;;14.07;7.00;;;25.60;73.00;;;;;;1905235;75;21097;-49
2021/07/04 11:07:07;;;;;;;10.88;6.78;;;25.50;73.80;;;;;;1905298;75;21047;-46
2021/07/04 11:09:57;;;;;;;16.95;8.15;;;25.40;73.70;;;;;;1905245;75;21027;-47
2021/07/04 11:12:29;;;;;;;11.10;6.03;;;25.40;74.10;;;;;;1905266;74;21105;-47
2021/07/04 11:15:16;;;;;;;11.85;5.22;;;25.40;74.20;;;;;;1905288;75;21152;-47
2021/07/04 11:18:00;;;;;;;9.03;5.78;;;25.50;73.90;;;;;;1905385;75;21468;-47
2021/07/04 11:20:36;;;;;;;9.23;5.70;;;25.50;73.60;;;;;;1918276;74;21147;-47
2021/07/04 11:23:10;;;;;;;8.65;6.35;;;25.50;73.30;;;;;;1921972;74;21465;-46
2021/07/04 11:25:48;;;;;;;10.50;6.17;;;25.50;73.30;;;;;;1924955;74;21037;-48
2021/07/04 11:28:19;;;;;;;8.60;6.00;;;25.40;73.30;;;;;;1924651;74;21606;-47
2021/07/04 11:30:57;;;;;;;10.65;6.28;;;25.40;74.10;;;;;;1924799;74;21441;-47
2021/07/04 11:33:42;;;;;;;10.68;6.28;;;25.30;73.50;;;;;;1921691;74;21104;-49
2021/07/04 11:36:19;;;;;;;;;;;25.20;73.70;;;;;;1927616;74;20987;-47
2021/07/04 11:38:51;;;;;;;12.25;6.45;;;25.20;74.60;;;;;;1924691;74;20140;-49
2021/07/04 11:41:26;;;;;;;14.13;8.55;;;25.20;73.90;;;;;;1924628;74;21112;-47
2021/07/04 11:43:59;;;;;;;11.33;6.67;;;25.10;74.40;;;;;;1924694;74;21037;-46
2021/07/04 11:46:30;;;;;;;10.60;6.28;;;25.20;74.80;;;;;;1924823;74;21038;-50
2021/07/04 11:49:05;;;;;;;9.60;5.78;;;25.20;74.60;;;;;;1924686;74;21100;-47
2021/07/04 11:51:44;;;;;;;13.95;7.37;;;25.30;74.70;;;;;;1924645;74;21010;-49
2021/07/04 11:54:19;;;;;;;9.15;5.75;;;25.30;74.90;;;;;;1924723;74;21022;-50
2021/07/04 11:56:53;;;;;;;9.60;6.60;;;25.40;74.80;;;;;;1924847;74;21054;-48
2021/07/04 11:59:28;;;;;;;10.63;6.42;;;25.50;74.70;;;;;;1924939;74;21065;-47
2021/07/04 12:01:59;;;;;;;11.40;7.10;;;25.50;74.30;;;;;;1924915;74;20995;-50
2021/07/04 12:04:44;;;;;;;13.93;9.28;;;25.50;74.00;;;;;;1924814;74;21082;-46
2021/07/04 12:07:14;;;;;;;16.07;9.88;;;25.40;74.70;;;;;;1924758;74;21038;-49
2021/07/04 12:09:45;;;;;;;13.93;8.18;;;25.40;75.30;;;;;;1924742;74;21013;-49
2021/07/04 12:12:23;;;;;;;14.03;6.87;;;25.30;75.50;;;;;;1924903;74;21086;-49
2021/07/04 12:15:02;;;;;;;13.65;6.33;;;25.20;76.10;;;;;;1924807;74;21023;-47
2021/07/04 12:17:42;;;;;;;12.10;7.55;;;25.00;75.90;;;;;;1924717;74;21014;-50
2021/07/04 12:20:29;;;;;;;8.45;6.78;;;24.90;75.70;;;;;;1924718;74;21042;-49
2021/07/04 12:23:02;;;;;;;9.23;6.42;;;24.70;75.90;;;;;;1922403;74;21016;-47
2021/07/04 12:25:42;;;;;;;11.05;6.78;;;24.60;76.00;;;;;;1924635;74;21441;-49
2021/07/04 12:28:18;;;;;;;9.83;7.33;;;24.50;77.30;;;;;;1923395;74;21046;-47
2021/07/04 12:30:52;;;;;;;12.18;7.65;;;24.60;77.30;;;;;;1924872;74;21109;-49
2021/07/04 12:33:27;;;;;;;13.72;7.12;;;24.60;77.60;;;;;;1924913;74;21159;-49
2021/07/04 12:36:10;;;;;;;11.63;7.22;;;24.70;77.70;;;;;;1924831;74;21051;-46
2021/07/04 12:38:41;;;;;;;13.98;7.60;;;24.80;77.70;;;;;;1924718;74;21085;-46
2021/07/04 12:41:18;;;;;;;10.32;6.97;;;24.90;77.80;;;;;;1924684;74;20999;-46
2021/07/04 12:43:51;;;;;;;9.73;6.67;;;25.10;77.50;;;;;;1924803;74;21022;-49
2021/07/04 12:46:30;;;;;;;9.80;6.42;;;25.20;77.20;;;;;;1924749;74;21042;-49
2021/07/04 12:49:00;;;;;;;9.43;7.22;;;25.30;76.80;;;;;;1924610;74;21505;-46
2021/07/04 12:51:33;;;;;;;12.10;8.20;;;25.30;76.70;;;;;;1924806;74;21085;-47
2021/07/04 12:54:04;;;;;;;11.95;8.18;;;25.40;77.20;;;;;;1924791;74;21555;-50
2021/07/04 12:56:35;;;;;;;9.28;8.28;;;25.40;77.50;;;;;;1923279;74;20995;-50